sensor_id;sensor_type;location;lat;lon;timestamp;pressure;altitude;pressure_sealevel;temperature;humidity
76448;BME280;65284;51.040;13.722;2024-02-14T00:00:13;100292.91;;;2.94;95.33
76448;BME280;65284;51.040;13.722;2024-02-14T00:02:41;100294.09;;;2.90;95.31
76448;BME280;65284;51.040;13.722;2024-02-14T00:05:09;100294.25;;;2.87;95.24
76448;BME280;65284;51.040;13.722;2024-02-14T00:07:37;100292.72;;;2.97;95.41
76448;BME280;65284;51.040;13.722;2024-02-14T00:10:04;100288.41;;;2.96;95.86
76448;BME280;65284;51.040;13.722;2024-02-14T00:12:35;100293.44;;;2.99;96.76
76448;BME280;65284;51.040;13.722;2024-02-14T00:15:03;100290.50;;;2.91;95.84
76448;BME280;65284;51.040;13.722;2024-02-14T00:17:30;100284.50;;;2.89;95.86
76448;BME280;65284;51.040;13.722;2024-02-14T00:19:57;100271.72;;;2.97;95.92
76448;BME280;65284;51.040;13.722;2024-02-14T00:22:24;100282.84;;;2.88;95.78
76448;BME280;65284;51.040;13.722;2024-02-14T00:24:50;100285.59;;;2.99;96.45
76448;BME280;65284;51.040;13.722;2024-02-14T00:27:16;100294.91;;;3.03;95.65
76448;BME280;65284;51.040;13.722;2024-02-14T00:29:43;100282.63;;;2.91;95.73
76448;BME280;65284;51.040;13.722;2024-02-14T00:32:12;100286.22;;;2.90;95.84
76448;BME280;65284;51.040;13.722;2024-02-14T00:34:39;100282.84;;;2.88;95.75
76448;BME280;65284;51.040;13.722;2024-02-14T00:37:06;100280.97;;;2.90;96.18
76448;BME280;65284;51.040;13.722;2024-02-14T00:39:32;100274.56;;;2.94;95.75
76448;BME280;65284;51.040;13.722;2024-02-14T00:41:58;100272.97;;;2.91;96.11
76448;BME280;65284;51.040;13.722;2024-02-14T00:44:25;100273.28;;;2.87;95.95
76448;BME280;65284;51.040;13.722;2024-02-14T00:46:56;100284.31;;;2.79;96.21
76448;BME280;65284;51.040;13.722;2024-02-14T00:49:25;100282.31;;;2.83;96.51
76448;BME280;65284;51.040;13.722;2024-02-14T00:51:52;100281.56;;;2.81;96.61
76448;BME280;65284;51.040;13.722;2024-02-14T00:54:19;100283.47;;;2.79;96.47
76448;BME280;65284;51.040;13.722;2024-02-14T00:56:45;100294.91;;;2.90;97.05
76448;BME280;65284;51.040;13.722;2024-02-14T00:59:12;100292.91;;;2.94;96.68
76448;BME280;65284;51.040;13.722;2024-02-14T01:01:38;100288.94;;;2.88;96.02
76448;BME280;65284;51.040;13.722;2024-02-14T01:04:05;100287.56;;;2.83;96.39
76448;BME280;65284;51.040;13.722;2024-02-14T01:06:31;100291.84;;;2.84;96.60
76448;BME280;65284;51.040;13.722;2024-02-14T01:08:58;100283.06;;;2.85;96.38
76448;BME280;65284;51.040;13.722;2024-02-14T01:11:24;100286.22;;;2.90;96.48
76448;BME280;65284;51.040;13.722;2024-02-14T01:13:51;100284.19;;;2.81;96.23
76448;BME280;65284;51.040;13.722;2024-02-14T01:16:18;100285.34;;;2.77;96.37
76448;BME280;65284;51.040;13.722;2024-02-14T01:18:44;100286.81;;;2.81;96.50
76448;BME280;65284;51.040;13.722;2024-02-14T01:21:11;100277.50;;;2.77;96.61
76448;BME280;65284;51.040;13.722;2024-02-14T01:23:37;100274.88;;;2.77;96.71
76448;BME280;65284;51.040;13.722;2024-02-14T01:26:04;100276.94;;;2.71;96.69
76448;BME280;65284;51.040;13.722;2024-02-14T01:28:31;100281.28;;;2.72;96.64
76448;BME280;65284;51.040;13.722;2024-02-14T01:30:58;100277.69;;;2.73;97.24
76448;BME280;65284;51.040;13.722;2024-02-14T01:33:24;100278.22;;;2.79;97.13
76448;BME280;65284;51.040;13.722;2024-02-14T01:35:51;100279.91;;;2.80;97.20
76448;BME280;65284;51.040;13.722;2024-02-14T01:38:17;100273.50;;;2.84;96.97
76448;BME280;65284;51.040;13.722;2024-02-14T01:40:44;100280.84;;;2.79;96.79
76448;BME280;65284;51.040;13.722;2024-02-14T01:43:11;100271.28;;;2.78;96.92
76448;BME280;65284;51.040;13.722;2024-02-14T01:45:40;100271.72;;;2.71;97.07
76448;BME280;65284;51.040;13.722;2024-02-14T01:48:07;100272.13;;;2.65;96.63
76448;BME280;65284;51.040;13.722;2024-02-14T01:50:35;100275.50;;;2.67;96.95
76448;BME280;65284;51.040;13.722;2024-02-14T01:53:02;100271.50;;;2.62;97.04
76448;BME280;65284;51.040;13.722;2024-02-14T01:55:29;100264.59;;;2.61;97.63
76448;BME280;65284;51.040;13.722;2024-02-14T01:57:55;100263.31;;;2.54;97.31
76448;BME280;65284;51.040;13.722;2024-02-14T02:00:22;100263.94;;;2.57;97.92
76448;BME280;65284;51.040;13.722;2024-02-14T02:02:48;100258.81;;;2.56;97.70
76448;BME280;65284;51.040;13.722;2024-02-14T02:05:15;100257.03;;;2.56;97.09
76448;BME280;65284;51.040;13.722;2024-02-14T02:07:43;100248.41;;;2.54;97.29
76448;BME280;65284;51.040;13.722;2024-02-14T02:10:10;100252.50;;;2.45;97.76
76448;BME280;65284;51.040;13.722;2024-02-14T02:12:37;100253.03;;;2.50;97.82
76448;BME280;65284;51.040;13.722;2024-02-14T02:15:08;100254.53;;;2.55;97.76
76448;BME280;65284;51.040;13.722;2024-02-14T02:17:40;100260.34;;;2.45;97.79
76448;BME280;65284;51.040;13.722;2024-02-14T02:20:07;100263.50;;;2.50;97.77
76448;BME280;65284;51.040;13.722;2024-02-14T02:22:35;100263.44;;;2.52;97.25
76448;BME280;65284;51.040;13.722;2024-02-14T02:25:03;100268.97;;;2.47;96.90
76448;BME280;65284;51.040;13.722;2024-02-14T02:27:33;100264.97;;;2.42;97.07
76448;BME280;65284;51.040;13.722;2024-02-14T02:30:05;100259.31;;;2.48;97.24
76448;BME280;65284;51.040;13.722;2024-02-14T02:32:32;100258.06;;;2.41;96.93
76448;BME280;65284;51.040;13.722;2024-02-14T02:34:59;100256.38;;;2.40;97.69
76448;BME280;65284;51.040;13.722;2024-02-14T02:37:26;100252.47;;;2.33;97.03
76448;BME280;65284;51.040;13.722;2024-02-14T02:39:55;100250.47;;;2.36;96.87
76448;BME280;65284;51.040;13.722;2024-02-14T02:42:22;100245.78;;;2.28;97.23
76448;BME280;65284;51.040;13.722;2024-02-14T02:44:50;100243.16;;;2.28;97.23
76448;BME280;65284;51.040;13.722;2024-02-14T02:47:17;100240.00;;;2.23;97.51
76448;BME280;65284;51.040;13.722;2024-02-14T02:49:44;100243.25;;;2.27;97.00
76448;BME280;65284;51.040;13.722;2024-02-14T02:52:11;100239.16;;;2.23;97.42
76448;BME280;65284;51.040;13.722;2024-02-14T02:54:38;100246.69;;;2.27;97.08
76448;BME280;65284;51.040;13.722;2024-02-14T02:57:10;100237.72;;;2.32;96.77
76448;BME280;65284;51.040;13.722;2024-02-14T02:59:37;100241.25;;;2.31;96.54
76448;BME280;65284;51.040;13.722;2024-02-14T03:02:05;100230.75;;;2.31;96.93
76448;BME280;65284;51.040;13.722;2024-02-14T03:04:34;100230.56;;;2.34;97.08
76448;BME280;65284;51.040;13.722;2024-02-14T03:07:17;100225.31;;;2.34;96.70
76448;BME280;65284;51.040;13.722;2024-02-14T03:09:44;100226.19;;;2.34;96.33
76448;BME280;65284;51.040;13.722;2024-02-14T03:12:10;100225.31;;;2.34;96.22
76448;BME280;65284;51.040;13.722;2024-02-14T03:14:37;100219.91;;;2.37;96.41
76448;BME280;65284;51.040;13.722;2024-02-14T03:17:03;100223.22;;;2.39;96.42
76448;BME280;65284;51.040;13.722;2024-02-14T03:19:30;100220.31;;;2.43;96.19
76448;BME280;65284;51.040;13.722;2024-02-14T03:21:57;100228.47;;;2.39;96.18
76448;BME280;65284;51.040;13.722;2024-02-14T03:24:23;100224.94;;;2.40;96.54
76448;BME280;65284;51.040;13.722;2024-02-14T03:26:52;100227.44;;;2.41;96.74
76448;BME280;65284;51.040;13.722;2024-02-14T03:29:21;100221.16;;;2.44;96.52
76448;BME280;65284;51.040;13.722;2024-02-14T03:31:47;100218.31;;;2.47;96.47
76448;BME280;65284;51.040;13.722;2024-02-14T03:34:14;100216.13;;;2.54;96.45
76448;BME280;65284;51.040;13.722;2024-02-14T03:36:41;100219.06;;;2.49;96.17
76448;BME280;65284;51.040;13.722;2024-02-14T03:39:09;100223.06;;;2.55;96.18
76448;BME280;65284;51.040;13.722;2024-02-14T03:41:35;100222.50;;;2.62;96.68
76448;BME280;65284;51.040;13.722;2024-02-14T03:44:03;100216.75;;;2.57;96.67
76448;BME280;65284;51.040;13.722;2024-02-14T03:46:30;100225.34;;;2.59;96.43
76448;BME280;65284;51.040;13.722;2024-02-14T03:48:56;100204.38;;;2.59;96.48
76448;BME280;65284;51.040;13.722;2024-02-14T03:51:23;100207.75;;;2.61;96.27
76448;BME280;65284;51.040;13.722;2024-02-14T03:53:50;100208.03;;;2.57;95.92
76448;BME280;65284;51.040;13.722;2024-02-14T03:56:16;100212.38;;;2.58;96.25
76448;BME280;65284;51.040;13.722;2024-02-14T03:58:43;100210.66;;;2.57;96.53
76448;BME280;65284;51.040;13.722;2024-02-14T04:01:10;100218.66;;;2.55;96.48
76448;BME280;65284;51.040;13.722;2024-02-14T04:03:36;100215.06;;;2.56;97.17
76448;BME280;65284;51.040;13.722;2024-02-14T04:06:03;100212.38;;;2.58;97.01
76448;BME280;65284;51.040;13.722;2024-02-14T04:08:30;100202.72;;;2.58;96.84
76448;BME280;65284;51.040;13.722;2024-02-14T04:10:57;100203.63;;;2.57;96.91
76448;BME280;65284;51.040;13.722;2024-02-14T04:13:23;100203.97;;;2.53;96.19
76448;BME280;65284;51.040;13.722;2024-02-14T04:15:49;100189.06;;;2.53;96.95
76448;BME280;65284;51.040;13.722;2024-02-14T04:18:16;100197.25;;;2.48;96.50
76448;BME280;65284;51.040;13.722;2024-02-14T04:20:44;100191.47;;;2.56;97.27
76448;BME280;65284;51.040;13.722;2024-02-14T04:23:11;100194.22;;;2.55;97.10
76448;BME280;65284;51.040;13.722;2024-02-14T04:25:37;100195.16;;;2.54;96.72
76448;BME280;65284;51.040;13.722;2024-02-14T04:28:04;100194.09;;;2.56;97.26
76448;BME280;65284;51.040;13.722;2024-02-14T04:30:31;100194.53;;;2.50;96.70
76448;BME280;65284;51.040;13.722;2024-02-14T04:32:57;100194.53;;;2.50;97.26
76448;BME280;65284;51.040;13.722;2024-02-14T04:35:24;100201.84;;;2.45;96.96
76448;BME280;65284;51.040;13.722;2024-02-14T04:37:50;100196.41;;;2.48;97.10
76448;BME280;65284;51.040;13.722;2024-02-14T04:40:19;100194.94;;;2.44;97.05
76448;BME280;65284;51.040;13.722;2024-02-14T04:42:46;100199.44;;;2.42;97.09
76448;BME280;65284;51.040;13.722;2024-02-14T04:45:13;100192.53;;;2.41;96.98
76448;BME280;65284;51.040;13.722;2024-02-14T04:47:40;100198.94;;;2.37;97.36
76448;BME280;65284;51.040;13.722;2024-02-14T04:50:07;100182.88;;;2.28;97.41
76448;BME280;65284;51.040;13.722;2024-02-14T04:52:33;100192.63;;;2.26;97.52
76448;BME280;65284;51.040;13.722;2024-02-14T04:54:59;100190.81;;;2.27;97.34
76448;BME280;65284;51.040;13.722;2024-02-14T04:57:26;100184.53;;;2.30;96.98
76448;BME280;65284;51.040;13.722;2024-02-14T04:59:53;100186.41;;;2.27;97.56
76448;BME280;65284;51.040;13.722;2024-02-14T05:02:19;100187.38;;;2.26;97.51
76448;BME280;65284;51.040;13.722;2024-02-14T05:04:46;100187.50;;;2.25;97.93
76448;BME280;65284;51.040;13.722;2024-02-14T05:07:12;100189.25;;;2.24;97.77
76448;BME280;65284;51.040;13.722;2024-02-14T05:09:39;100182.34;;;2.23;98.16
76448;BME280;65284;51.040;13.722;2024-02-14T05:12:05;100191.16;;;2.22;97.85
76448;BME280;65284;51.040;13.722;2024-02-14T05:14:37;100184.34;;;2.20;97.80
76448;BME280;65284;51.040;13.722;2024-02-14T05:17:04;100191.56;;;2.16;98.07
76448;BME280;65284;51.040;13.722;2024-02-14T05:19:31;100187.25;;;2.15;98.13
76448;BME280;65284;51.040;13.722;2024-02-14T05:21:57;100186.53;;;2.13;98.22
76448;BME280;65284;51.040;13.722;2024-02-14T05:24:24;100182.13;;;2.14;98.48
76448;BME280;65284;51.040;13.722;2024-02-14T05:26:53;100188.00;;;2.17;98.24
76448;BME280;65284;51.040;13.722;2024-02-14T05:29:20;100184.44;;;2.18;98.36
76448;BME280;65284;51.040;13.722;2024-02-14T05:31:47;100187.38;;;2.14;98.96
76448;BME280;65284;51.040;13.722;2024-02-14T05:34:15;100182.13;;;2.14;98.91
76448;BME280;65284;51.040;13.722;2024-02-14T05:36:42;100179.19;;;2.18;98.84
76448;BME280;65284;51.040;13.722;2024-02-14T05:39:09;100168.81;;;2.17;98.91
76448;BME280;65284;51.040;13.722;2024-02-14T05:41:36;100172.91;;;2.21;98.83
76448;BME280;65284;51.040;13.722;2024-02-14T05:44:03;100168.28;;;2.24;98.84
76448;BME280;65284;51.040;13.722;2024-02-14T05:46:30;100174.19;;;2.28;98.88
76448;BME280;65284;51.040;13.722;2024-02-14T05:48:56;100160.88;;;2.31;98.61
76448;BME280;65284;51.040;13.722;2024-02-14T05:51:24;100163.91;;;2.38;98.57
76448;BME280;65284;51.040;13.722;2024-02-14T05:53:50;100157.00;;;2.37;98.19
76448;BME280;65284;51.040;13.722;2024-02-14T05:56:17;100165.50;;;2.40;98.46
76448;BME280;65284;51.040;13.722;2024-02-14T05:58:43;100155.91;;;2.39;98.21
76448;BME280;65284;51.040;13.722;2024-02-14T06:01:10;100152.38;;;2.40;98.57
76448;BME280;65284;51.040;13.722;2024-02-14T06:03:36;100152.03;;;2.45;98.51
76448;BME280;65284;51.040;13.722;2024-02-14T06:06:03;100148.59;;;2.44;98.04
76448;BME280;65284;51.040;13.722;2024-02-14T06:08:29;100143.97;;;2.48;97.97
76448;BME280;65284;51.040;13.722;2024-02-14T06:10:56;100143.75;;;2.51;98.33
76448;BME280;65284;51.040;13.722;2024-02-14T06:13:22;100145.44;;;2.52;97.96
76448;BME280;65284;51.040;13.722;2024-02-14T06:15:49;100149.66;;;2.55;97.79
76448;BME280;65284;51.040;13.722;2024-02-14T06:18:15;100147.66;;;2.58;98.75
76448;BME280;65284;51.040;13.722;2024-02-14T06:20:42;100157.19;;;2.59;98.15
76448;BME280;65284;51.040;13.722;2024-02-14T06:23:09;100151.94;;;2.59;97.77
76448;BME280;65284;51.040;13.722;2024-02-14T06:25:35;100161.47;;;2.60;97.99
76448;BME280;65284;51.040;13.722;2024-02-14T06:28:02;100164.84;;;2.62;98.00
76448;BME280;65284;51.040;13.722;2024-02-14T06:30:28;100163.91;;;2.63;97.79
76448;BME280;65284;51.040;13.722;2024-02-14T06:32:58;100161.16;;;2.65;97.97
76448;BME280;65284;51.040;13.722;2024-02-14T06:35:28;100165.38;;;2.67;97.98
76448;BME280;65284;51.040;13.722;2024-02-14T06:37:55;100164.19;;;2.71;98.23
76448;BME280;65284;51.040;13.722;2024-02-14T06:40:30;100168.38;;;2.74;98.04
76448;BME280;65284;51.040;13.722;2024-02-14T06:42:56;100178.78;;;2.76;97.66
76448;BME280;65284;51.040;13.722;2024-02-14T06:45:25;100173.09;;;2.82;97.21
76448;BME280;65284;51.040;13.722;2024-02-14T06:47:51;100166.81;;;2.84;97.11
76448;BME280;65284;51.040;13.722;2024-02-14T06:50:18;100178.75;;;2.88;97.37
76448;BME280;65284;51.040;13.722;2024-02-14T06:52:44;100176.75;;;2.92;97.61
76448;BME280;65284;51.040;13.722;2024-02-14T06:55:11;100174.66;;;2.97;97.39
76448;BME280;65284;51.040;13.722;2024-02-14T06:57:38;100179.91;;;2.97;97.37
76448;BME280;65284;51.040;13.722;2024-02-14T07:00:05;100182.53;;;2.97;97.14
76448;BME280;65284;51.040;13.722;2024-02-14T07:02:33;100171.81;;;3.00;97.02
76448;BME280;65284;51.040;13.722;2024-02-14T07:05:00;100164.69;;;3.02;97.56
76448;BME280;65284;51.040;13.722;2024-02-14T07:07:26;100161.94;;;3.04;96.98
76448;BME280;65284;51.040;13.722;2024-02-14T07:09:53;100163.50;;;3.06;97.09
76448;BME280;65284;51.040;13.722;2024-02-14T07:12:20;100163.81;;;3.14;97.13
76448;BME280;65284;51.040;13.722;2024-02-14T07:14:47;100159.06;;;3.19;96.51
76448;BME280;65284;51.040;13.722;2024-02-14T07:17:13;100152.03;;;3.20;96.40
76448;BME280;65284;51.040;13.722;2024-02-14T07:19:40;100142.16;;;3.24;96.43
76448;BME280;65284;51.040;13.722;2024-02-14T07:22:09;100134.03;;;3.27;96.38
76448;BME280;65284;51.040;13.722;2024-02-14T07:24:35;100133.59;;;3.33;95.60
76448;BME280;65284;51.040;13.722;2024-02-14T07:27:02;100142.09;;;3.36;95.55
76448;BME280;65284;51.040;13.722;2024-02-14T07:29:28;100150.47;;;3.41;95.28
76448;BME280;65284;51.040;13.722;2024-02-14T07:31:55;100147.53;;;3.46;95.03
76448;BME280;65284;51.040;13.722;2024-02-14T07:34:25;100143.50;;;3.53;94.74
76448;BME280;65284;51.040;13.722;2024-02-14T07:36:52;100147.31;;;3.60;94.75
76448;BME280;65284;51.040;13.722;2024-02-14T07:39:18;100145.94;;;3.68;95.44
76448;BME280;65284;51.040;13.722;2024-02-14T07:41:45;100139.03;;;3.78;94.79
76448;BME280;65284;51.040;13.722;2024-02-14T07:44:12;100141.09;;;3.85;93.88
76448;BME280;65284;51.040;13.722;2024-02-14T07:46:38;100134.56;;;3.91;93.27
76448;BME280;65284;51.040;13.722;2024-02-14T07:49:05;100130.50;;;3.98;93.12
76448;BME280;65284;51.040;13.722;2024-02-14T07:51:32;100124.44;;;4.09;92.77
76448;BME280;65284;51.040;13.722;2024-02-14T07:54:04;100124.22;;;4.12;92.17
76448;BME280;65284;51.040;13.722;2024-02-14T07:56:30;100119.56;;;4.16;91.82
76448;BME280;65284;51.040;13.722;2024-02-14T07:58:57;100123.38;;;4.23;92.13
76448;BME280;65284;51.040;13.722;2024-02-14T08:01:25;100110.84;;;4.26;92.16
76448;BME280;65284;51.040;13.722;2024-02-14T08:03:52;100104.06;;;4.35;91.57
76448;BME280;65284;51.040;13.722;2024-02-14T08:06:18;100099.88;;;4.44;91.41
76448;BME280;65284;51.040;13.722;2024-02-14T08:08:45;100105.25;;;4.53;90.97
76448;BME280;65284;51.040;13.722;2024-02-14T08:11:12;100089.72;;;4.62;90.46
76448;BME280;65284;51.040;13.722;2024-02-14T08:13:38;100100.81;;;4.65;90.03
76448;BME280;65284;51.040;13.722;2024-02-14T08:16:06;100097.81;;;4.70;90.04
76448;BME280;65284;51.040;13.722;2024-02-14T08:18:33;100109.66;;;4.75;90.13
76448;BME280;65284;51.040;13.722;2024-02-14T08:20:59;100105.69;;;4.81;90.07
76448;BME280;65284;51.040;13.722;2024-02-14T08:23:26;100097.44;;;4.86;90.10
76448;BME280;65284;51.040;13.722;2024-02-14T08:25:52;100094.69;;;4.87;89.63
76448;BME280;65284;51.040;13.722;2024-02-14T08:28:19;100099.69;;;4.90;90.08
76448;BME280;65284;51.040;13.722;2024-02-14T08:30:46;100105.44;;;4.95;89.56
76448;BME280;65284;51.040;13.722;2024-02-14T08:33:14;100098.72;;;5.02;90.05
76448;BME280;65284;51.040;13.722;2024-02-14T08:35:40;100092.25;;;5.07;90.38
76448;BME280;65284;51.040;13.722;2024-02-14T08:38:09;100092.75;;;5.12;89.75
76448;BME280;65284;51.040;13.722;2024-02-14T08:40:36;100074.16;;;5.13;89.78
76448;BME280;65284;51.040;13.722;2024-02-14T08:43:03;100082.28;;;5.21;89.92
76448;BME280;65284;51.040;13.722;2024-02-14T08:45:31;100078.44;;;5.25;89.72
76448;BME280;65284;51.040;13.722;2024-02-14T08:47:58;100084.88;;;5.33;89.54
76448;BME280;65284;51.040;13.722;2024-02-14T08:50:24;100072.41;;;5.35;89.03
76448;BME280;65284;51.040;13.722;2024-02-14T08:52:51;100078.88;;;5.42;88.91
76448;BME280;65284;51.040;13.722;2024-02-14T08:55:17;100082.34;;;5.42;89.39
76448;BME280;65284;51.040;13.722;2024-02-14T08:57:45;100095.00;;;5.48;89.85
76448;BME280;65284;51.040;13.722;2024-02-14T09:00:13;100099.19;;;5.51;90.63
76448;BME280;65284;51.040;13.722;2024-02-14T09:02:46;100099.75;;;5.55;90.49
76448;BME280;65284;51.040;13.722;2024-02-14T09:05:15;100108.38;;;5.57;90.27
76448;BME280;65284;51.040;13.722;2024-02-14T09:07:43;100100.34;;;5.58;89.45
76448;BME280;65284;51.040;13.722;2024-02-14T09:10:10;100088.19;;;5.67;90.02
76448;BME280;65284;51.040;13.722;2024-02-14T09:12:39;100089.38;;;5.74;89.48
76448;BME280;65284;51.040;13.722;2024-02-14T09:15:08;100091.75;;;5.77;89.21
76448;BME280;65284;51.040;13.722;2024-02-14T09:17:34;100095.78;;;5.81;89.21
76448;BME280;65284;51.040;13.722;2024-02-14T09:20:01;100092.91;;;5.84;89.41
76448;BME280;65284;51.040;13.722;2024-02-14T09:22:28;100084.47;;;5.90;89.90
76448;BME280;65284;51.040;13.722;2024-02-14T09:24:55;100090.09;;;5.97;88.53
76448;BME280;65284;51.040;13.722;2024-02-14T09:27:23;100095.38;;;5.97;88.50
76448;BME280;65284;51.040;13.722;2024-02-14T09:29:49;100100.25;;;6.02;87.92
76448;BME280;65284;51.040;13.722;2024-02-14T09:32:16;100094.28;;;6.00;88.03
76448;BME280;65284;51.040;13.722;2024-02-14T09:34:42;100104.81;;;6.00;88.29
76448;BME280;65284;51.040;13.722;2024-02-14T09:37:09;100111.53;;;6.04;88.91
76448;BME280;65284;51.040;13.722;2024-02-14T09:39:36;100102.38;;;6.08;89.31
76448;BME280;65284;51.040;13.722;2024-02-14T09:42:08;100107.13;;;6.14;88.05
76448;BME280;65284;51.040;13.722;2024-02-14T09:44:35;100106.59;;;6.20;87.65
76448;BME280;65284;51.040;13.722;2024-02-14T09:47:05;100115.25;;;6.22;87.52
76448;BME280;65284;51.040;13.722;2024-02-14T09:49:32;100109.69;;;6.25;87.60
76448;BME280;65284;51.040;13.722;2024-02-14T09:52:02;100108.47;;;6.29;87.83
76448;BME280;65284;51.040;13.722;2024-02-14T09:54:32;100100.28;;;6.32;87.73
76448;BME280;65284;51.040;13.722;2024-02-14T09:57:02;100102.13;;;6.42;88.01
76448;BME280;65284;51.040;13.722;2024-02-14T09:59:29;100094.41;;;6.50;87.01
76448;BME280;65284;51.040;13.722;2024-02-14T10:01:57;100096.78;;;6.53;86.74
76448;BME280;65284;51.040;13.722;2024-02-14T10:04:23;100096.25;;;6.59;86.15
76448;BME280;65284;51.040;13.722;2024-02-14T10:06:52;100099.59;;;6.61;86.38
76448;BME280;65284;51.040;13.722;2024-02-14T10:09:22;100104.31;;;6.67;87.07
76448;BME280;65284;51.040;13.722;2024-02-14T10:11:49;100099.88;;;6.68;87.65
76448;BME280;65284;51.040;13.722;2024-02-14T10:14:16;100110.06;;;6.72;87.54
76448;BME280;65284;51.040;13.722;2024-02-14T10:17:08;100101.06;;;6.84;86.20
76448;BME280;65284;51.040;13.722;2024-02-14T10:19:36;100098.84;;;6.90;86.29
76448;BME280;65284;51.040;13.722;2024-02-14T10:22:02;100103.88;;;6.93;86.21
76448;BME280;65284;51.040;13.722;2024-02-14T10:24:29;100096.06;;;6.91;86.65
76448;BME280;65284;51.040;13.722;2024-02-14T10:27:00;100102.19;;;6.92;86.77
76448;BME280;65284;51.040;13.722;2024-02-14T10:29:27;100103.88;;;6.93;87.13
76448;BME280;65284;51.040;13.722;2024-02-14T10:31:53;100107.19;;;6.95;86.15
76448;BME280;65284;51.040;13.722;2024-02-14T10:34:24;100102.59;;;6.97;86.25
76448;BME280;65284;51.040;13.722;2024-02-14T10:36:52;100096.06;;;7.01;86.00
76448;BME280;65284;51.040;13.722;2024-02-14T10:39:20;100090.28;;;7.07;85.99
76448;BME280;65284;51.040;13.722;2024-02-14T10:41:47;100095.28;;;7.10;85.93
76448;BME280;65284;51.040;13.722;2024-02-14T10:44:14;100093.31;;;7.12;85.78
76448;BME280;65284;51.040;13.722;2024-02-14T10:46:41;100081.81;;;7.23;85.97
76448;BME280;65284;51.040;13.722;2024-02-14T10:49:07;100092.50;;;7.21;86.02
76448;BME280;65284;51.040;13.722;2024-02-14T10:51:35;100080.00;;;7.23;86.65
76448;BME280;65284;51.040;13.722;2024-02-14T10:54:04;100078.75;;;7.27;86.60
76448;BME280;65284;51.040;13.722;2024-02-14T10:56:33;100081.13;;;7.31;86.77
76448;BME280;65284;51.040;13.722;2024-02-14T10:59:01;100076.97;;;7.38;86.52
76448;BME280;65284;51.040;13.722;2024-02-14T11:01:29;100078.34;;;7.42;86.60
76448;BME280;65284;51.040;13.722;2024-02-14T11:04:01;100065.53;;;7.47;86.09
76448;BME280;65284;51.040;13.722;2024-02-14T11:06:28;100065.97;;;7.52;86.02
76448;BME280;65284;51.040;13.722;2024-02-14T11:09:03;100073.34;;;7.58;85.48
76448;BME280;65284;51.040;13.722;2024-02-14T11:11:35;100065.69;;;7.65;85.08
76448;BME280;65284;51.040;13.722;2024-02-14T11:14:02;100068.59;;;7.71;85.00
76448;BME280;65284;51.040;13.722;2024-02-14T11:16:31;100051.78;;;7.72;85.18
76448;BME280;65284;51.040;13.722;2024-02-14T11:19:06;100061.06;;;7.77;85.10
76448;BME280;65284;51.040;13.722;2024-02-14T11:21:41;100070.66;;;7.87;84.65
76448;BME280;65284;51.040;13.722;2024-02-14T11:24:12;100065.34;;;7.97;84.38
76448;BME280;65284;51.040;13.722;2024-02-14T11:26:48;100062.13;;;8.03;84.84
76448;BME280;65284;51.040;13.722;2024-02-14T11:29:18;100053.78;;;8.08;84.85
76448;BME280;65284;51.040;13.722;2024-02-14T11:31:48;100050.69;;;8.12;84.97
76448;BME280;65284;51.040;13.722;2024-02-14T11:34:24;100056.09;;;8.20;85.67
76448;BME280;65284;51.040;13.722;2024-02-14T11:36:51;100052.28;;;8.33;86.17
76448;BME280;65284;51.040;13.722;2024-02-14T11:39:17;100058.69;;;8.40;85.41
76448;BME280;65284;51.040;13.722;2024-02-14T11:41:44;100055.56;;;8.54;84.91
76448;BME280;65284;51.040;13.722;2024-02-14T11:44:11;100061.38;;;8.68;85.08
76448;BME280;65284;51.040;13.722;2024-02-14T11:46:38;100055.41;;;8.83;85.01
76448;BME280;65284;51.040;13.722;2024-02-14T11:49:05;100053.69;;;8.92;84.88
76448;BME280;65284;51.040;13.722;2024-02-14T11:51:33;100054.53;;;8.93;85.20
76448;BME280;65284;51.040;13.722;2024-02-14T11:54:02;100058.91;;;9.02;85.65
76448;BME280;65284;51.040;13.722;2024-02-14T11:56:37;100060.97;;;9.08;85.24
76448;BME280;65284;51.040;13.722;2024-02-14T11:59:07;100061.22;;;9.15;84.74
76448;BME280;65284;51.040;13.722;2024-02-14T12:01:37;100076.13;;;9.16;85.27
76448;BME280;65284;51.040;13.722;2024-02-14T12:04:08;100059.59;;;9.57;85.09
76448;BME280;65284;51.040;13.722;2024-02-14T12:06:35;100063.91;;;9.76;84.22
76448;BME280;65284;51.040;13.722;2024-02-14T12:09:04;100054.41;;;9.92;83.59
76448;BME280;65284;51.040;13.722;2024-02-14T12:11:39;100069.81;;;9.88;84.06
76448;BME280;65284;51.040;13.722;2024-02-14T12:14:09;100073.28;;;9.89;83.81
76448;BME280;65284;51.040;13.722;2024-02-14T12:16:37;100069.19;;;9.94;84.05
76448;BME280;65284;51.040;13.722;2024-02-14T12:19:06;100069.50;;;9.91;83.91
76448;BME280;65284;51.040;13.722;2024-02-14T12:21:38;100068.50;;;9.92;83.60
76448;BME280;65284;51.040;13.722;2024-02-14T12:24:11;100065.22;;;9.98;83.37
76448;BME280;65284;51.040;13.722;2024-02-14T12:26:41;100061.88;;;9.96;83.41
76448;BME280;65284;51.040;13.722;2024-02-14T12:29:11;100079.84;;;10.02;83.65
76448;BME280;65284;51.040;13.722;2024-02-14T12:31:39;100066.00;;;9.91;83.53
76448;BME280;65284;51.040;13.722;2024-02-14T12:34:06;100069.84;;;9.96;83.13
76448;BME280;65284;51.040;13.722;2024-02-14T12:36:33;100063.91;;;10.02;82.80
76448;BME280;65284;51.040;13.722;2024-02-14T12:39:00;100063.00;;;10.12;82.56
76448;BME280;65284;51.040;13.722;2024-02-14T12:41:31;100056.31;;;10.08;82.82
76448;BME280;65284;51.040;13.722;2024-02-14T12:43:58;100067.47;;;10.11;82.69
76448;BME280;65284;51.040;13.722;2024-02-14T12:46:25;100061.00;;;10.14;82.83
76448;BME280;65284;51.040;13.722;2024-02-14T12:48:52;100062.69;;;10.15;83.17
76448;BME280;65284;51.040;13.722;2024-02-14T12:51:18;100062.69;;;10.15;83.21